sensor_id;sensor_type;location;lat;lon;timestamp;pressure;altitude;pressure_sealevel;temperature;humidity
26436;BME280;15351;52.408;16.826;2022-12-18T00:01:24;102554.84;;;-1.55;70.81
26436;BME280;15351;52.408;16.826;2022-12-18T00:03:53;102565.22;;;-1.50;70.91
26436;BME280;15351;52.408;16.826;2022-12-18T00:06:22;102563.92;;;-1.64;70.74
26436;BME280;15351;52.408;16.826;2022-12-18T00:08:51;102564.64;;;-1.72;70.79
26436;BME280;15351;52.408;16.826;2022-12-18T00:11:21;102570.86;;;-1.74;70.93
26436;BME280;15351;52.408;16.826;2022-12-18T00:13:49;102565.21;;;-1.77;71.02
26436;BME280;15351;52.408;16.826;2022-12-18T00:16:20;102570.89;;;-1.61;71.17
26436;BME280;15351;52.408;16.826;2022-12-18T00:18:49;102574.30;;;-1.58;70.99
26436;BME280;15351;52.408;16.826;2022-12-18T00:21:19;102578.47;;;-1.64;70.95
26436;BME280;15351;52.408;16.826;2022-12-18T00:23:47;102574.88;;;-1.49;71.25
26436;BME280;15351;52.408;16.826;2022-12-18T00:26:18;102573.16;;;-1.50;70.83
26436;BME280;15351;52.408;16.826;2022-12-18T00:28:50;102571.12;;;-1.54;70.75
26436;BME280;15351;52.408;16.826;2022-12-18T00:31:19;102582.74;;;-1.60;70.73
26436;BME280;15351;52.408;16.826;2022-12-18T00:33:47;102584.31;;;-1.67;70.58
26436;BME280;15351;52.408;16.826;2022-12-18T00:36:20;102581.77;;;-1.70;70.75
26436;BME280;15351;52.408;16.826;2022-12-18T00:38:55;102585.66;;;-1.81;70.60
26436;BME280;15351;52.408;16.826;2022-12-18T00:41:24;102593.08;;;-1.79;70.74
26436;BME280;15351;52.408;16.826;2022-12-18T00:44:12;102594.40;;;-1.79;70.74
26436;BME280;15351;52.408;16.826;2022-12-18T00:46:43;102583.83;;;-1.94;70.61
26436;BME280;15351;52.408;16.826;2022-12-18T00:49:09;102605.68;;;-1.87;70.60
26436;BME280;15351;52.408;16.826;2022-12-18T00:51:37;102605.34;;;-1.91;70.71
26436;BME280;15351;52.408;16.826;2022-12-18T00:54:03;102605.64;;;-1.73;70.94
26436;BME280;15351;52.408;16.826;2022-12-18T00:56:30;102602.47;;;-1.57;70.84
26436;BME280;15351;52.408;16.826;2022-12-18T00:58:57;102604.69;;;-1.44;70.46
26436;BME280;15351;52.408;16.826;2022-12-18T01:01:23;102615.59;;;-1.53;70.17
26436;BME280;15351;52.408;16.826;2022-12-18T01:03:50;102620.04;;;-1.40;70.33
26436;BME280;15351;52.408;16.826;2022-12-18T01:06:18;102622.14;;;-1.51;69.71
26436;BME280;15351;52.408;16.826;2022-12-18T01:08:46;102631.72;;;-1.61;69.77
26436;BME280;15351;52.408;16.826;2022-12-18T01:11:16;102633.85;;;-1.72;69.82
26436;BME280;15351;52.408;16.826;2022-12-18T01:13:44;102636.39;;;-1.69;70.05
26436;BME280;15351;52.408;16.826;2022-12-18T01:16:14;102641.99;;;-1.65;69.92
26436;BME280;15351;52.408;16.826;2022-12-18T01:18:41;102636.52;;;-1.74;69.61
26436;BME280;15351;52.408;16.826;2022-12-18T01:21:09;102645.04;;;-1.93;69.67
26436;BME280;15351;52.408;16.826;2022-12-18T01:23:38;102648.50;;;-1.91;70.09
26436;BME280;15351;52.408;16.826;2022-12-18T01:26:10;102645.50;;;-1.79;70.32
26436;BME280;15351;52.408;16.826;2022-12-18T01:28:40;102644.69;;;-1.67;70.05
26436;BME280;15351;52.408;16.826;2022-12-18T01:31:22;102646.63;;;-1.59;69.92
26436;BME280;15351;52.408;16.826;2022-12-18T01:33:51;102651.61;;;-1.63;69.72
26436;BME280;15351;52.408;16.826;2022-12-18T01:36:21;102652.72;;;-1.55;69.65
26436;BME280;15351;52.408;16.826;2022-12-18T01:38:53;102647.43;;;-1.55;69.32
26436;BME280;15351;52.408;16.826;2022-12-18T01:41:25;102651.10;;;-1.61;69.16
26436;BME280;15351;52.408;16.826;2022-12-18T01:43:57;102654.56;;;-1.73;69.14
26436;BME280;15351;52.408;16.826;2022-12-18T01:46:26;102662.69;;;-1.79;69.25
26436;BME280;15351;52.408;16.826;2022-12-18T01:48:58;102667.00;;;-1.91;69.09
26436;BME280;15351;52.408;16.826;2022-12-18T01:51:28;102658.04;;;-1.99;69.28
26436;BME280;15351;52.408;16.826;2022-12-18T01:53:57;102661.09;;;-1.98;69.35
26436;BME280;15351;52.408;16.826;2022-12-18T01:56:25;102655.48;;;-2.02;69.57
26436;BME280;15351;52.408;16.826;2022-12-18T01:59:01;102663.19;;;-1.95;69.51
26436;BME280;15351;52.408;16.826;2022-12-18T02:01:31;102655.95;;;-2.04;69.34
26436;BME280;15351;52.408;16.826;2022-12-18T02:04:24;102667.63;;;-2.11;69.25
26436;BME280;15351;52.408;16.826;2022-12-18T02:07:13;102662.86;;;-2.29;69.08
26436;BME280;15351;52.408;16.826;2022-12-18T02:09:50;102676.39;;;-2.41;69.37
26436;BME280;15351;52.408;16.826;2022-12-18T02:12:23;102682.58;;;-2.42;69.67
26436;BME280;15351;52.408;16.826;2022-12-18T02:15:22;102681.95;;;-2.35;69.88
26436;BME280;15351;52.408;16.826;2022-12-18T02:18:05;102678.98;;;-2.23;70.07
26436;BME280;15351;52.408;16.826;2022-12-18T02:20:47;102680.26;;;-2.22;69.66
26436;BME280;15351;52.408;16.826;2022-12-18T02:23:32;102687.87;;;-2.26;69.62
26436;BME280;15351;52.408;16.826;2022-12-18T02:26:37;102688.69;;;-2.24;69.62
26436;BME280;15351;52.408;16.826;2022-12-18T02:29:11;102694.06;;;-2.27;69.56
26436;BME280;15351;52.408;16.826;2022-12-18T02:31:49;102695.38;;;-2.27;69.55
26436;BME280;15351;52.408;16.826;2022-12-18T02:34:19;102692.16;;;-2.22;69.24
26436;BME280;15351;52.408;16.826;2022-12-18T02:36:49;102691.51;;;-2.30;69.18
26436;BME280;15351;52.408;16.826;2022-12-18T02:39:21;102702.72;;;-2.38;68.99
26436;BME280;15351;52.408;16.826;2022-12-18T02:41:52;102705.11;;;-2.60;69.10
26436;BME280;15351;52.408;16.826;2022-12-18T02:44:20;102708.09;;;-2.73;69.34
26436;BME280;15351;52.408;16.826;2022-12-18T02:46:52;102703.06;;;-2.84;69.65
26436;BME280;15351;52.408;16.826;2022-12-18T02:49:35;102707.39;;;-2.80;69.78
26436;BME280;15351;52.408;16.826;2022-12-18T02:52:35;102704.13;;;-2.90;69.61
26436;BME280;15351;52.408;16.826;2022-12-18T02:58:30;102699.75;;;-3.08;70.19
26436;BME280;15351;52.408;16.826;2022-12-18T03:04:02;102702.56;;;-2.80;70.19
26436;BME280;15351;52.408;16.826;2022-12-18T03:06:43;102705.81;;;-2.71;70.33
26436;BME280;15351;52.408;16.826;2022-12-18T03:09:22;102711.27;;;-2.77;70.06
26436;BME280;15351;52.408;16.826;2022-12-18T03:12:04;102716.80;;;-2.87;70.09
26436;BME280;15351;52.408;16.826;2022-12-18T03:15:03;102715.55;;;-2.90;70.31
26436;BME280;15351;52.408;16.826;2022-12-18T03:17:32;102721.49;;;-2.81;70.38
26436;BME280;15351;52.408;16.826;2022-12-18T03:20:10;102714.61;;;-2.87;70.37
26436;BME280;15351;52.408;16.826;2022-12-18T03:22:38;102722.03;;;-2.86;70.42
26436;BME280;15351;52.408;16.826;2022-12-18T03:25:07;102730.36;;;-2.85;70.33
26436;BME280;15351;52.408;16.826;2022-12-18T03:27:40;102725.16;;;-2.87;70.34
26436;BME280;15351;52.408;16.826;2022-12-18T03:30:12;102729.41;;;-2.99;70.28
26436;BME280;15351;52.408;16.826;2022-12-18T03:32:56;102721.73;;;-2.91;70.70
26436;BME280;15351;52.408;16.826;2022-12-18T03:35:28;102723.23;;;-2.80;70.68
26436;BME280;15351;52.408;16.826;2022-12-18T03:37:58;102723.47;;;-2.73;70.61
26436;BME280;15351;52.408;16.826;2022-12-18T03:40:29;102706.48;;;-2.79;70.34
26436;BME280;15351;52.408;16.826;2022-12-18T03:43:03;102732.18;;;-2.69;70.43
26436;BME280;15351;52.408;16.826;2022-12-18T03:45:42;102731.23;;;-2.67;70.29
26436;BME280;15351;52.408;16.826;2022-12-18T03:48:23;102735.64;;;-2.67;70.29
26436;BME280;15351;52.408;16.826;2022-12-18T03:51:02;102734.11;;;-2.59;70.43
26436;BME280;15351;52.408;16.826;2022-12-18T03:53:51;102738.98;;;-2.60;69.98
26436;BME280;15351;52.408;16.826;2022-12-18T03:56:30;102734.73;;;-2.65;69.95
26436;BME280;15351;52.408;16.826;2022-12-18T03:59:02;102727.80;;;-2.53;70.28
26436;BME280;15351;52.408;16.826;2022-12-18T04:01:33;102732.27;;;-2.40;70.23
26436;BME280;15351;52.408;16.826;2022-12-18T04:04:04;102735.28;;;-2.37;69.93
26436;BME280;15351;52.408;16.826;2022-12-18T04:06:35;102739.17;;;-2.50;69.33
26436;BME280;15351;52.408;16.826;2022-12-18T04:09:03;102747.31;;;-2.76;69.51
26436;BME280;15351;52.408;16.826;2022-12-18T04:11:32;102753.01;;;-2.75;69.87
26436;BME280;15351;52.408;16.826;2022-12-18T04:13:59;102750.45;;;-2.78;69.82
26436;BME280;15351;52.408;16.826;2022-12-18T04:16:26;102751.61;;;-2.72;70.07
26436;BME280;15351;52.408;16.826;2022-12-18T04:18:56;102750.98;;;-2.64;70.04
26436;BME280;15351;52.408;16.826;2022-12-18T04:21:26;102753.13;;;-2.62;69.86
26436;BME280;15351;52.408;16.826;2022-12-18T04:23:53;102756.39;;;-2.70;69.59
26436;BME280;15351;52.408;16.826;2022-12-18T04:26:22;102752.30;;;-2.81;69.69
26436;BME280;15351;52.408;16.826;2022-12-18T04:29:08;102757.86;;;-2.93;69.69
26436;BME280;15351;52.408;16.826;2022-12-18T04:31:35;102764.09;;;-2.95;70.36
26436;BME280;15351;52.408;16.826;2022-12-18T04:34:03;102765.95;;;-2.82;70.45
26436;BME280;15351;52.408;16.826;2022-12-18T04:36:31;102769.67;;;-2.73;70.51
26436;BME280;15351;52.408;16.826;2022-12-18T04:38:58;102766.63;;;-2.74;70.24
26436;BME280;15351;52.408;16.826;2022-12-18T04:41:25;102775.41;;;-2.73;70.46
26436;BME280;15351;52.408;16.826;2022-12-18T04:43:51;102777.80;;;-2.80;70.19
26436;BME280;15351;52.408;16.826;2022-12-18T04:46:20;102778.20;;;-2.79;70.65
26436;BME280;15351;52.408;16.826;2022-12-18T04:48:47;102766.21;;;-2.58;70.85
26436;BME280;15351;52.408;16.826;2022-12-18T04:51:14;102769.75;;;-2.42;70.59
26436;BME280;15351;52.408;16.826;2022-12-18T04:53:40;102771.31;;;-2.33;70.31
26436;BME280;15351;52.408;16.826;2022-12-18T04:56:13;102774.66;;;-2.44;69.86
26436;BME280;15351;52.408;16.826;2022-12-18T04:58:43;102774.67;;;-2.61;69.89
26436;BME280;15351;52.408;16.826;2022-12-18T05:01:14;102793.20;;;-2.63;70.24
26436;BME280;15351;52.408;16.826;2022-12-18T05:03:42;102798.64;;;-2.70;70.12
26436;BME280;15351;52.408;16.826;2022-12-18T05:06:10;102807.05;;;-2.72;70.53
26436;BME280;15351;52.408;16.826;2022-12-18T05:08:37;102804.91;;;-2.74;70.61
26436;BME280;15351;52.408;16.826;2022-12-18T05:11:11;102802.97;;;-2.67;70.83
26436;BME280;15351;52.408;16.826;2022-12-18T05:13:36;102799.75;;;-2.61;70.87
26436;BME280;15351;52.408;16.826;2022-12-18T05:16:04;102810.23;;;-2.58;70.84
26436;BME280;15351;52.408;16.826;2022-12-18T05:18:36;102809.17;;;-2.51;70.97
26436;BME280;15351;52.408;16.826;2022-12-18T05:21:03;102811.81;;;-2.51;70.76
26436;BME280;15351;52.408;16.826;2022-12-18T05:23:34;102809.41;;;-2.60;70.64
26436;BME280;15351;52.408;16.826;2022-12-18T05:26:04;102807.75;;;-2.64;70.87
26436;BME280;15351;52.408;16.826;2022-12-18T05:28:32;102802.81;;;-2.60;71.01
26436;BME280;15351;52.408;16.826;2022-12-18T05:31:02;102813.46;;;-2.46;71.22
26436;BME280;15351;52.408;16.826;2022-12-18T05:33:32;102816.09;;;-2.29;71.15
26436;BME280;15351;52.408;16.826;2022-12-18T05:36:02;102818.94;;;-2.19;70.79
26436;BME280;15351;52.408;16.826;2022-12-18T05:38:32;102822.62;;;-2.26;70.51
26436;BME280;15351;52.408;16.826;2022-12-18T05:41:02;102822.25;;;-2.28;70.77
26436;BME280;15351;52.408;16.826;2022-12-18T05:43:29;102831.38;;;-2.24;70.65
26436;BME280;15351;52.408;16.826;2022-12-18T05:45:56;102836.57;;;-2.21;70.64
26436;BME280;15351;52.408;16.826;2022-12-18T05:48:23;102839.38;;;-2.27;70.38
26436;BME280;15351;52.408;16.826;2022-12-18T05:51:03;102843.42;;;-2.30;70.38
26436;BME280;15351;52.408;16.826;2022-12-18T05:53:35;102847.59;;;-2.39;70.24
26436;BME280;15351;52.408;16.826;2022-12-18T05:56:05;102848.01;;;-2.38;70.53
26436;BME280;15351;52.408;16.826;2022-12-18T05:58:34;102848.71;;;-2.30;70.54
26436;BME280;15351;52.408;16.826;2022-12-18T06:01:16;102852.84;;;-2.20;70.65
26436;BME280;15351;52.408;16.826;2022-12-18T06:03:44;102857.00;;;-2.10;70.53
26436;BME280;15351;52.408;16.826;2022-12-18T06:06:24;102857.91;;;-2.11;70.21
26436;BME280;15351;52.408;16.826;2022-12-18T06:08:53;102857.30;;;-2.05;70.56
26436;BME280;15351;52.408;16.826;2022-12-18T06:11:26;102864.01;;;-1.92;70.44
26436;BME280;15351;52.408;16.826;2022-12-18T06:13:54;102870.25;;;-1.95;70.05
26436;BME280;15351;52.408;16.826;2022-12-18T06:16:22;102873.47;;;-1.99;70.09
26436;BME280;15351;52.408;16.826;2022-12-18T06:18:48;102879.92;;;-2.11;69.93
26436;BME280;15351;52.408;16.826;2022-12-18T06:21:15;102889.92;;;-2.23;70.05
26436;BME280;15351;52.408;16.826;2022-12-18T06:23:42;102892.72;;;-2.29;70.01
26436;BME280;15351;52.408;16.826;2022-12-18T06:26:10;102899.03;;;-2.36;70.24
26436;BME280;15351;52.408;16.826;2022-12-18T06:28:38;102893.83;;;-2.39;70.40
26436;BME280;15351;52.408;16.826;2022-12-18T06:31:05;102886.64;;;-2.32;70.54
26436;BME280;15351;52.408;16.826;2022-12-18T06:33:33;102885.37;;;-2.34;70.50
26436;BME280;15351;52.408;16.826;2022-12-18T06:36:05;102885.98;;;-2.42;70.22
26436;BME280;15351;52.408;16.826;2022-12-18T06:38:35;102885.07;;;-2.41;70.52
26436;BME280;15351;52.408;16.826;2022-12-18T06:41:11;102897.87;;;-2.42;70.68
26436;BME280;15351;52.408;16.826;2022-12-18T06:43:39;102901.37;;;-2.41;70.31
26436;BME280;15351;52.408;16.826;2022-12-18T06:46:08;102898.14;;;-2.53;70.51
26436;BME280;15351;52.408;16.826;2022-12-18T06:48:34;102896.14;;;-2.61;70.60
26436;BME280;15351;52.408;16.826;2022-12-18T06:51:01;102897.53;;;-2.64;70.59
26436;BME280;15351;52.408;16.826;2022-12-18T06:53:31;102904.70;;;-2.70;70.64
26436;BME280;15351;52.408;16.826;2022-12-18T06:56:06;102907.87;;;-2.74;70.69
26436;BME280;15351;52.408;16.826;2022-12-18T06:58:33;102909.53;;;-2.70;70.87
26436;BME280;15351;52.408;16.826;2022-12-18T07:01:02;102915.61;;;-2.65;70.94
26436;BME280;15351;52.408;16.826;2022-12-18T07:03:30;102919.04;;;-2.62;70.84
26436;BME280;15351;52.408;16.826;2022-12-18T07:05:57;102918.70;;;-2.65;70.84
26436;BME280;15351;52.408;16.826;2022-12-18T07:08:26;102930.66;;;-2.70;70.79
26436;BME280;15351;52.408;16.826;2022-12-18T07:10:52;102935.59;;;-2.74;71.02
26436;BME280;15351;52.408;16.826;2022-12-18T07:13:19;102936.73;;;-2.66;71.06
26436;BME280;15351;52.408;16.826;2022-12-18T07:15:47;102932.20;;;-2.60;70.93
26436;BME280;15351;52.408;16.826;2022-12-18T07:18:16;102933.67;;;-2.67;70.71
26436;BME280;15351;52.408;16.826;2022-12-18T07:20:43;102938.65;;;-2.73;70.84
26436;BME280;15351;52.408;16.826;2022-12-18T07:23:10;102936.73;;;-2.65;71.03
26436;BME280;15351;52.408;16.826;2022-12-18T07:25:36;102933.45;;;-2.57;70.85
26436;BME280;15351;52.408;16.826;2022-12-18T07:28:03;102934.47;;;-2.63;70.80
26436;BME280;15351;52.408;16.826;2022-12-18T07:30:30;102935.86;;;-2.65;70.91
26436;BME280;15351;52.408;16.826;2022-12-18T07:32:58;102948.23;;;-2.69;70.97
26436;BME280;15351;52.408;16.826;2022-12-18T07:35:26;102950.58;;;-2.56;71.27
26436;BME280;15351;52.408;16.826;2022-12-18T07:37:53;102956.05;;;-2.44;71.17
26436;BME280;15351;52.408;16.826;2022-12-18T07:40:19;102946.51;;;-2.51;70.86
26436;BME280;15351;52.408;16.826;2022-12-18T07:42:45;102963.91;;;-2.42;70.94
26436;BME280;15351;52.408;16.826;2022-12-18T07:45:12;102974.81;;;-2.38;70.86
26436;BME280;15351;52.408;16.826;2022-12-18T07:47:39;102978.78;;;-2.38;70.79
26436;BME280;15351;52.408;16.826;2022-12-18T07:50:07;102982.74;;;-2.38;70.89
26436;BME280;15351;52.408;16.826;2022-12-18T07:52:34;102996.93;;;-2.42;70.94
26436;BME280;15351;52.408;16.826;2022-12-18T07:55:00;102989.72;;;-2.34;70.97
26436;BME280;15351;52.408;16.826;2022-12-18T07:57:28;102987.08;;;-2.34;70.86
26436;BME280;15351;52.408;16.826;2022-12-18T07:59:55;102999.42;;;-2.34;71.05
26436;BME280;15351;52.408;16.826;2022-12-18T08:02:22;103007.39;;;-2.37;70.99
26436;BME280;15351;52.408;16.826;2022-12-18T08:04:52;103010.28;;;-2.47;70.99
26436;BME280;15351;52.408;16.826;2022-12-18T08:07:20;103011.30;;;-2.54;71.31
26436;BME280;15351;52.408;16.826;2022-12-18T08:09:46;103012.92;;;-2.47;71.48
26436;BME280;15351;52.408;16.826;2022-12-18T08:12:12;103008.81;;;-2.42;71.54
26436;BME280;15351;52.408;16.826;2022-12-18T08:14:39;103014.73;;;-2.49;71.49
26436;BME280;15351;52.408;16.826;2022-12-18T08:17:05;103015.49;;;-2.44;71.72
26436;BME280;15351;52.408;16.826;2022-12-18T08:19:32;103019.08;;;-2.47;71.49
26436;BME280;15351;52.408;16.826;2022-12-18T08:21:59;103020.70;;;-2.42;71.72
26436;BME280;15351;52.408;16.826;2022-12-18T08:24:26;103016.59;;;-2.34;71.88
26436;BME280;15351;52.408;16.826;2022-12-18T08:26:52;103008.25;;;-2.37;71.62
26436;BME280;15351;52.408;16.826;2022-12-18T08:29:19;103003.69;;;-2.29;71.86
26436;BME280;15351;52.408;16.826;2022-12-18T08:31:45;103006.22;;;-2.24;71.65
26436;BME280;15351;52.408;16.826;2022-12-18T08:34:13;103005.50;;;-2.31;71.52
26436;BME280;15351;52.408;16.826;2022-12-18T08:36:40;103011.84;;;-2.21;71.82
26436;BME280;15351;52.408;16.826;2022-12-18T08:39:08;103005.54;;;-2.14;71.68
26436;BME280;15351;52.408;16.826;2022-12-18T08:41:34;103011.44;;;-2.21;71.33
26436;BME280;15351;52.408;16.826;2022-12-18T08:44:01;103009.63;;;-2.18;71.58
26436;BME280;15351;52.408;16.826;2022-12-18T08:46:47;103001.80;;;-2.05;71.76
26436;BME280;15351;52.408;16.826;2022-12-18T08:49:14;102992.55;;;-2.05;71.31
26436;BME280;15351;52.408;16.826;2022-12-18T08:51:41;103000.83;;;-2.20;71.20
26436;BME280;15351;52.408;16.826;2022-12-18T08:54:14;103000.83;;;-2.19;71.45
26436;BME280;15351;52.408;16.826;2022-12-18T08:56:42;102994.14;;;-2.16;71.48
26436;BME280;15351;52.408;16.826;2022-12-18T08:59:10;102984.36;;;-2.12;71.59
26436;BME280;15351;52.408;16.826;2022-12-18T09:01:37;102976.66;;;-2.04;71.44
26436;BME280;15351;52.408;16.826;2022-12-18T09:04:04;102981.38;;;-2.16;71.28
26436;BME280;15351;52.408;16.826;2022-12-18T09:06:30;102968.28;;;-2.22;71.48
26436;BME280;15351;52.408;16.826;2022-12-18T09:08:59;102965.07;;;-2.16;71.75
26436;BME280;15351;52.408;16.826;2022-12-18T09:11:26;102968.47;;;-2.11;71.81
26436;BME280;15351;52.408;16.826;2022-12-18T09:13:54;102971.36;;;-2.04;71.74
26436;BME280;15351;52.408;16.826;2022-12-18T09:16:22;102977.89;;;-1.99;71.85
26436;BME280;15351;52.408;16.826;2022-12-18T09:18:51;102975.87;;;-1.90;71.82
26436;BME280;15351;52.408;16.826;2022-12-18T09:21:21;102977.53;;;-1.85;71.83
26436;BME280;15351;52.408;16.826;2022-12-18T09:23:50;102983.69;;;-1.84;71.44
26436;BME280;15351;52.408;16.826;2022-12-18T09:26:17;102976.75;;;-1.90;71.47
26436;BME280;15351;52.408;16.826;2022-12-18T09:28:53;102979.52;;;-1.77;71.68
26436;BME280;15351;52.408;16.826;2022-12-18T09:31:30;102979.09;;;-1.78;71.56
26436;BME280;15351;52.408;16.826;2022-12-18T09:33:57;102993.44;;;-1.69;71.65
26436;BME280;15351;52.408;16.826;2022-12-18T09:36:23;102991.32;;;-1.55;71.67
26436;BME280;15351;52.408;16.826;2022-12-18T09:38:50;102998.39;;;-1.56;71.34
26436;BME280;15351;52.408;16.826;2022-12-18T09:41:41;102999.22;;;-1.54;71.30
26436;BME280;15351;52.408;16.826;2022-12-18T09:46:52;102975.70;;;-1.66;71.30
26436;BME280;15351;52.408;16.826;2022-12-18T09:49:23;102981.61;;;-1.55;71.32
26436;BME280;15351;52.408;16.826;2022-12-18T09:52:02;102993.80;;;-1.50;71.40
26436;BME280;15351;52.408;16.826;2022-12-18T09:54:53;102997.97;;;-1.41;71.43
26436;BME280;15351;52.408;16.826;2022-12-18T09:57:20;102996.09;;;-1.36;71.31
26436;BME280;15351;52.408;16.826;2022-12-18T09:59:55;102982.55;;;-1.42;71.17
26436;BME280;15351;52.408;16.826;2022-12-18T10:02:25;102976.84;;;-1.43;71.33
26436;BME280;15351;52.408;16.826;2022-12-18T10:05:11;102984.15;;;-1.35;71.33
26436;BME280;15351;52.408;16.826;2022-12-18T10:08:12;102986.25;;;-1.32;71.28
26436;BME280;15351;52.408;16.826;2022-12-18T10:10:58;102982.91;;;-1.38;71.17
26436;BME280;15351;52.408;16.826;2022-12-18T10:13:35;102973.48;;;-1.32;71.36
26436;BME280;15351;52.408;16.826;2022-12-18T10:16:33;102971.56;;;-1.27;71.43
26436;BME280;15351;52.408;16.826;2022-12-18T10:19:01;102973.57;;;-1.19;71.49
26436;BME280;15351;52.408;16.826;2022-12-18T10:21:44;102978.86;;;-1.19;71.14
26436;BME280;15351;52.408;16.826;2022-12-18T10:27:17;102987.04;;;-0.97;71.36
26436;BME280;15351;52.408;16.826;2022-12-18T10:29:45;102984.93;;;-0.85;71.09
26436;BME280;15351;52.408;16.826;2022-12-18T10:32:17;102982.08;;;-0.77;70.82
26436;BME280;15351;52.408;16.826;2022-12-18T10:34:50;102981.36;;;-0.84;70.74
26436;BME280;15351;52.408;16.826;2022-12-18T10:37:21;102985.70;;;-0.81;70.64
26436;BME280;15351;52.408;16.826;2022-12-18T10:40:13;102990.91;;;-0.92;70.44
26436;BME280;15351;52.408;16.826;2022-12-18T10:42:41;102997.98;;;-0.93;70.80
26436;BME280;15351;52.408;16.826;2022-12-18T10:45:16;102995.80;;;-0.93;70.55
26436;BME280;15351;52.408;16.826;2022-12-18T10:47:50;102985.66;;;-0.94;70.74
26436;BME280;15351;52.408;16.826;2022-12-18T10:50:32;102986.30;;;-0.86;70.85
26436;BME280;15351;52.408;16.826;2022-12-18T10:53:00;102987.03;;;-0.81;70.71
26436;BME280;15351;52.408;16.826;2022-12-18T10:55:39;102986.07;;;-0.93;70.41
26436;BME280;15351;52.408;16.826;2022-12-18T10:58:38;102996.44;;;-1.01;70.67
26436;BME280;15351;52.408;16.826;2022-12-18T11:01:13;102989.87;;;-1.03;70.82
26436;BME280;15351;52.408;16.826;2022-12-18T11:03:45;102980.42;;;-0.97;71.06
26436;BME280;15351;52.408;16.826;2022-12-18T11:06:18;102974.30;;;-0.99;70.84
26436;BME280;15351;52.408;16.826;2022-12-18T11:09:02;102971.61;;;-0.97;71.15
26436;BME280;15351;52.408;16.826;2022-12-18T11:11:34;102965.84;;;-0.81;71.26
26436;BME280;15351;52.408;16.826;2022-12-18T11:16:55;102964.81;;;-0.76;70.94
26436;BME280;15351;52.408;16.826;2022-12-18T11:19:35;102968.82;;;-0.63;71.11
26436;BME280;15351;52.408;16.826;2022-12-18T11:25:05;102975.00;;;-0.48;70.94
26436;BME280;15351;52.408;16.826;2022-12-18T11:27:55;102965.20;;;-0.45;70.69
26436;BME280;15351;52.408;16.826;2022-12-18T11:30:29;102954.91;;;-0.41;70.73
26436;BME280;15351;52.408;16.826;2022-12-18T11:36:02;102951.13;;;-0.61;70.41
26436;BME280;15351;52.408;16.826;2022-12-18T11:38:34;102961.11;;;-0.70;70.46
26436;BME280;15351;52.408;16.826;2022-12-18T11:44:35;102961.83;;;-0.66;70.59
26436;BME280;15351;52.408;16.826;2022-12-18T11:47:32;102965.75;;;-0.63;70.80
26436;BME280;15351;52.408;16.826;2022-12-18T11:50:17;102960.56;;;-0.53;70.72
26436;BME280;15351;52.408;16.826;2022-12-18T11:52:42;102968.42;;;-0.50;70.62
26436;BME280;15351;52.408;16.826;2022-12-18T12:04:09;102982.16;;;-0.66;70.41
26436;BME280;15351;52.408;16.826;2022-12-18T12:07:02;102979.27;;;-0.57;70.53
26436;BME280;15351;52.408;16.826;2022-12-18T12:21:34;102985.55;;;-0.33;70.24
26436;BME280;15351;52.408;16.826;2022-12-18T12:27:33;102991.15;;;-0.42;70.16
26436;BME280;15351;52.408;16.826;2022-12-18T12:30:06;102998.34;;;-0.32;70.43
26436;BME280;15351;52.408;16.826;2022-12-18T12:33:03;102992.37;;;-0.24;70.22
26436;BME280;15351;52.408;16.826;2022-12-18T12:38:59;102992.37;;;-0.24;70.23
26436;BME280;15351;52.408;16.826;2022-12-18T12:41:25;102993.50;;;-0.19;70.06
26436;BME280;15351;52.408;16.826;2022-12-18T12:44:27;102992.59;;;-0.18;70.09
26436;BME280;15351;52.408;16.826;2022-12-18T12:47:00;102983.92;;;-0.22;70.04
26436;BME280;15351;52.408;16.826;2022-12-18T12:49:33;102992.17;;;-0.19;69.80
26436;BME280;15351;52.408;16.826;2022-12-18T12:52:20;102987.67;;;-0.15;69.83
26436;BME280;15351;52.408;16.826;2022-12-18T12:54:52;102985.96;;;-0.18;69.56
26436;BME280;15351;52.408;16.826;2022-12-18T12:57:33;102984.58;;;-0.16;69.82
26436;BME280;15351;52.408;16.826;2022-12-18T13:00:06;102984.88;;;-0.11;69.74
26436;BME280;15351;52.408;16.826;2022-12-18T13:03:04;102981.61;;;-0.06;69.67
26436;BME280;15351;52.408;16.826;2022-12-18T13:05:58;102973.55;;;-0.03;69.45
26436;BME280;15351;52.408;16.826;2022-12-18T13:08:29;102970.59;;;-0.07;69.24
26436;BME280;15351;52.408;16.826;2022-12-18T13:10:58;102961.01;;;-0.11;69.37
26436;BME280;15351;52.408;16.826;2022-12-18T13:13:55;102977.42;;;-0.13;69.39
26436;BME280;15351;52.408;16.826;2022-12-18T13:16:24;102972.84;;;-0.08;69.46
26436;BME280;15351;52.408;16.826;2022-12-18T13:18:55;102967.53;;;-0.08;69.31
26436;BME280;15351;52.408;16.826;2022-12-18T13:21:27;102982.02;;;-0.05;69.11
26436;BME280;15351;52.408;16.826;2022-12-18T13:23:57;102988.70;;;-0.06;69.08
26436;BME280;15351;52.408;16.826;2022-12-18T13:26:41;102987.42;;;-0.08;69.08
26436;BME280;15351;52.408;16.826;2022-12-18T13:29:07;102979.47;;;-0.08;68.96
26436;BME280;15351;52.408;16.826;2022-12-18T13:34:21;102981.00;;;-0.14;68.58
26436;BME280;15351;52.408;16.826;2022-12-18T13:36:49;102983.61;;;-0.26;68.44
26436;BME280;15351;52.408;16.826;2022-12-18T13:44:42;102986.34;;;-0.58;68.83
26436;BME280;15351;52.408;16.826;2022-12-18T13:47:31;102991.28;;;-0.60;68.82
26436;BME280;15351;52.408;16.826;2022-12-18T13:50:20;102995.09;;;-0.70;68.81
26436;BME280;15351;52.408;16.826;2022-12-18T13:52:42;102990.80;;;-0.74;69.00
26436;BME280;15351;52.408;16.826;2022-12-18T13:55:16;102989.02;;;-0.73;69.35
26436;BME280;15351;52.408;16.826;2022-12-18T13:57:46;102988.22;;;-0.61;69.47
26436;BME280;15351;52.408;16.826;2022-12-18T14:02:58;102992.16;;;-0.45;69.27
26436;BME280;15351;52.408;16.826;2022-12-18T14:05:33;102991.61;;;-0.42;69.31
26436;BME280;15351;52.408;16.826;2022-12-18T14:08:13;102990.64;;;-0.40;69.10
26436;BME280;15351;52.408;16.826;2022-12-18T14:10:42;102985.48;;;-0.44;68.72